createdAt,value
2019-03-22T00:01:15.256Z,111.60
2019-03-22T00:03:20.874Z,112.17
2019-03-22T00:05:26.409Z,108.57
2019-03-22T00:07:31.943Z,110.42
2019-03-22T00:09:37.609Z,108.70
2019-03-22T00:11:43.130Z,106.55
2019-03-22T00:13:48.665Z,104.92
2019-03-22T00:15:54.217Z,106.72
2019-03-22T00:18:00.576Z,103.95
2019-03-22T00:20:08.020Z,96.00
2019-03-22T00:22:14.533Z,90.85
2019-03-22T00:24:20.057Z,92.78
2019-03-22T00:26:25.584Z,92.75
2019-03-22T00:28:31.107Z,97.33
2019-03-22T00:30:36.635Z,97.15
2019-03-22T00:32:42.167Z,98.27
2019-03-22T00:34:47.755Z,97.67
2019-03-22T00:36:53.339Z,98.78
2019-03-22T00:38:58.856Z,98.42
2019-03-22T00:41:04.391Z,94.77
2019-03-22T00:43:09.911Z,95.12
2019-03-22T00:45:15.787Z,94.47
2019-03-22T00:47:21.313Z,97.55
2019-03-22T00:49:26.853Z,101.75
2019-03-22T00:51:32.415Z,100.90
2019-03-22T00:53:37.946Z,101.65
2019-03-22T00:55:43.480Z,104.00
2019-03-22T00:57:49.060Z,109.60
2019-03-22T00:59:54.643Z,106.35
2019-03-22T01:02:00.180Z,107.27
2019-03-22T01:04:05.799Z,110.68
2019-03-22T01:06:11.462Z,108.72
2019-03-22T01:08:17.063Z,111.03
2019-03-22T01:10:22.635Z,105.03
2019-03-22T01:12:28.171Z,98.55
2019-03-22T01:14:33.681Z,98.82
2019-03-22T01:16:39.215Z,97.85
2019-03-22T01:18:44.735Z,94.28
2019-03-22T01:20:50.260Z,95.72
2019-03-22T01:22:55.801Z,96.78
2019-03-22T01:25:01.321Z,87.62
2019-03-22T01:27:06.911Z,85.62
2019-03-22T01:29:12.448Z,86.05
2019-03-22T01:31:17.981Z,86.05
2019-03-22T01:33:23.501Z,84.75
2019-03-22T01:35:29.033Z,83.52
2019-03-22T01:37:34.556Z,84.85
2019-03-22T01:39:40.086Z,86.15
2019-03-22T01:41:45.620Z,87.02
2019-03-22T01:43:51.153Z,86.92
2019-03-22T01:45:56.666Z,88.85
2019-03-22T01:48:02.210Z,84.92
2019-03-22T01:50:10.731Z,80.15
2019-03-22T01:52:16.262Z,81.50
2019-03-22T01:54:21.796Z,83.90
2019-03-22T01:56:27.308Z,87.82
2019-03-22T01:58:32.828Z,86.50
2019-03-22T02:00:38.432Z,104.03
2019-03-22T02:02:43.959Z,107.40
2019-03-22T02:04:49.503Z,128.75
2019-03-22T02:06:55.041Z,115.25
2019-03-22T02:09:00.569Z,108.85
2019-03-22T02:11:07.796Z,98.12
2019-03-22T02:13:13.328Z,90.57
2019-03-22T02:15:18.839Z,92.75
2019-03-22T02:17:24.440Z,108.30
2019-03-22T02:19:29.973Z,112.95
2019-03-22T02:21:35.940Z,127.30
2019-03-22T02:23:42.468Z,110.57
2019-03-22T02:25:48.006Z,102.38
2019-03-22T02:28:03.789Z,83.72
2019-03-22T02:30:00.684Z,83.67
2019-03-22T02:32:06.203Z,85.95
2019-03-22T02:34:11.725Z,96.72
2019-03-22T02:36:17.253Z,109.75
2019-03-22T02:38:22.770Z,108.80
2019-03-22T02:40:28.296Z,116.50
2019-03-22T02:42:33.866Z,123.60
2019-03-22T02:44:39.417Z,108.95
2019-03-22T02:46:44.918Z,106.92
2019-03-22T02:48:50.459Z,99.47
2019-03-22T02:50:56.484Z,110.90
2019-03-22T02:53:02.222Z,97.70
2019-03-22T02:55:09.702Z,89.58
2019-03-22T02:57:15.226Z,88.58
2019-03-22T02:59:20.751Z,89.52
2019-03-22T03:01:26.289Z,93.42
2019-03-22T03:03:31.809Z,96.90
2019-03-22T03:05:37.336Z,93.07
2019-03-22T03:07:42.955Z,95.50
2019-03-22T03:09:48.464Z,88.40
2019-03-22T03:11:53.989Z,89.97
2019-03-22T03:13:59.518Z,89.22
2019-03-22T03:16:05.059Z,90.20
2019-03-22T03:18:10.592Z,89.58
2019-03-22T03:20:18.226Z,87.57
2019-03-22T03:22:23.728Z,92.42
2019-03-22T03:24:31.967Z,92.00
2019-03-22T03:26:37.490Z,88.37
2019-03-22T03:28:43.021Z,86.82
2019-03-22T03:30:48.588Z,85.97
2019-03-22T03:32:54.226Z,84.52
2019-03-22T03:34:59.745Z,79.85
2019-03-22T03:37:05.363Z,78.75
2019-03-22T03:39:10.897Z,76.55
2019-03-22T03:41:16.410Z,76.02
2019-03-22T03:43:21.941Z,76.05
2019-03-22T03:45:30.548Z,75.03
2019-03-22T03:47:36.065Z,72.17
2019-03-22T03:49:41.610Z,73.45
2019-03-22T03:51:47.124Z,75.30
2019-03-22T03:53:52.653Z,75.67
2019-03-22T03:55:58.202Z,76.72
2019-03-22T03:58:04.211Z,77.72
2019-03-22T04:00:10.064Z,76.28
2019-03-22T04:02:15.608Z,75.28
2019-03-22T04:04:21.132Z,73.95
2019-03-22T04:06:26.650Z,76.65
2019-03-22T04:08:32.319Z,78.95
2019-03-22T04:10:37.854Z,74.05
2019-03-22T04:12:43.357Z,75.47
2019-03-22T04:14:48.886Z,70.32
2019-03-22T04:16:54.415Z,69.35
2019-03-22T04:18:59.930Z,70.37
2019-03-22T04:21:05.466Z,69.05
2019-03-22T04:23:10.995Z,68.37
2019-03-22T04:25:17.618Z,68.42
2019-03-22T04:27:23.137Z,71.72
2019-03-22T04:29:28.651Z,87.42
2019-03-22T04:31:34.179Z,75.17
2019-03-22T04:33:39.727Z,90.30
2019-03-22T04:35:45.256Z,119.10
2019-03-22T04:37:50.786Z,163.07
2019-03-22T04:39:56.311Z,160.80
2019-03-22T04:42:01.833Z,170.40
2019-03-22T04:44:07.369Z,178.82
2019-03-22T04:46:14.140Z,171.15
2019-03-22T04:48:28.536Z,128.85
2019-03-22T04:52:40.329Z,193.60
2019-03-22T04:54:48.758Z,215.90
2019-03-22T04:56:57.106Z,203.18
2019-03-22T04:59:05.357Z,182.90
2019-03-22T05:01:13.931Z,198.40
2019-03-22T05:03:20.696Z,159.00
2019-03-22T05:05:26.314Z,133.18
2019-03-22T05:07:31.976Z,130.43
2019-03-22T05:09:38.471Z,107.10
2019-03-22T05:11:46.151Z,86.15
2019-03-22T05:13:54.776Z,78.90
2019-03-22T05:16:00.750Z,72.50
2019-03-22T05:18:07.922Z,73.95
2019-03-22T05:20:15.083Z,73.22
2019-03-22T05:22:23.016Z,74.25
2019-03-22T05:24:30.412Z,78.78
2019-03-22T05:26:37.941Z,85.55
2019-03-22T05:28:43.796Z,89.83
2019-03-22T05:31:22.613Z,87.53
2019-03-22T05:33:28.206Z,87.30
2019-03-22T05:35:33.724Z,89.35
2019-03-22T05:37:39.268Z,88.07
2019-03-22T05:39:44.785Z,89.97
2019-03-22T05:41:50.314Z,83.75
2019-03-22T05:43:55.874Z,87.35
2019-03-22T05:46:01.380Z,82.37
2019-03-22T05:48:06.914Z,84.47
2019-03-22T05:50:12.477Z,83.42
2019-03-22T05:52:18.004Z,80.38
2019-03-22T05:54:23.524Z,83.00
2019-03-22T05:56:29.053Z,82.22
2019-03-22T05:58:34.662Z,80.77
2019-03-22T06:00:40.185Z,86.22
2019-03-22T06:02:45.724Z,85.87
2019-03-22T06:04:51.249Z,89.95
2019-03-22T06:06:56.914Z,97.57
2019-03-22T06:09:02.485Z,90.22
2019-03-22T06:11:08.008Z,90.60
2019-03-22T06:13:13.543Z,85.03
2019-03-22T06:15:19.088Z,88.50
2019-03-22T06:17:24.615Z,90.03
2019-03-22T06:19:30.141Z,90.35
2019-03-22T06:21:35.673Z,93.35
2019-03-22T06:23:41.200Z,94.17
2019-03-22T06:25:46.728Z,88.60
2019-03-22T06:27:52.276Z,87.92
2019-03-22T06:29:57.804Z,85.67
2019-03-22T06:32:03.479Z,84.65
2019-03-22T06:34:09.011Z,81.35
2019-03-22T06:36:14.549Z,87.08
2019-03-22T06:38:20.090Z,88.55
2019-03-22T06:40:25.665Z,91.92
2019-03-22T06:42:31.190Z,90.42
2019-03-22T06:44:36.713Z,97.75
2019-03-22T06:46:42.268Z,94.10
2019-03-22T06:48:47.792Z,95.97
2019-03-22T06:50:53.325Z,89.83
2019-03-22T06:52:58.889Z,90.03
2019-03-22T06:55:06.462Z,92.62
2019-03-22T06:57:11.985Z,90.17
2019-03-22T06:59:17.537Z,89.77
2019-03-22T07:01:23.060Z,91.37
2019-03-22T07:03:28.577Z,96.08
2019-03-22T07:05:34.116Z,91.47
2019-03-22T07:07:39.636Z,87.42
2019-03-22T07:09:45.794Z,84.05
2019-03-22T07:11:51.337Z,84.58
2019-03-22T07:13:56.868Z,76.07
2019-03-22T07:16:02.432Z,76.37
2019-03-22T07:18:07.971Z,75.55
2019-03-22T07:20:13.633Z,78.75
2019-03-22T07:22:19.170Z,76.97
2019-03-22T07:24:24.691Z,74.45
2019-03-22T07:26:30.406Z,77.87
2019-03-22T07:28:35.965Z,71.62
2019-03-22T07:30:41.488Z,74.10
2019-03-22T07:32:47.030Z,69.95
2019-03-22T07:34:52.544Z,66.40
2019-03-22T07:36:58.084Z,75.08
2019-03-22T07:39:05.471Z,68.12
2019-03-22T07:41:11.000Z,107.22
2019-03-22T07:43:16.543Z,65.15
2019-03-22T07:45:22.961Z,75.22
2019-03-22T07:47:28.505Z,102.40
2019-03-22T07:49:34.210Z,64.58
2019-03-22T07:51:39.737Z,95.60
2019-03-22T07:53:45.286Z,108.17
2019-03-22T07:55:50.807Z,89.55
2019-03-22T07:57:56.713Z,95.17
2019-03-22T08:00:02.344Z,91.63
2019-03-22T08:02:08.153Z,139.37
2019-03-22T08:04:13.700Z,94.87
2019-03-22T08:06:19.252Z,112.95
2019-03-22T08:08:24.789Z,122.00
2019-03-22T08:10:30.311Z,114.30
2019-03-22T08:12:36.210Z,125.67
2019-03-22T08:14:41.773Z,146.65
2019-03-22T08:16:47.430Z,101.85
2019-03-22T08:18:52.968Z,97.90
2019-03-22T08:20:58.676Z,63.15
2019-03-22T08:23:07.261Z,64.75
2019-03-22T08:25:12.783Z,108.47
2019-03-22T08:27:18.336Z,110.78
2019-03-22T08:29:23.870Z,121.07
2019-03-22T08:31:29.392Z,85.17
2019-03-22T08:33:34.982Z,107.60
2019-03-22T08:35:40.488Z,89.05
2019-03-22T08:37:52.524Z,129.85
2019-03-22T08:39:55.806Z,76.33
2019-03-22T08:42:00.405Z,60.63
2019-03-22T08:44:05.925Z,57.08
2019-03-22T08:46:11.464Z,59.08
2019-03-22T08:48:16.997Z,61.60
2019-03-22T08:50:22.531Z,57.10
2019-03-22T08:52:28.089Z,61.02
2019-03-22T08:54:33.620Z,63.38
2019-03-22T08:56:39.154Z,74.07
2019-03-22T08:58:44.721Z,69.40
2019-03-22T09:00:57.413Z,94.47
2019-03-22T09:02:57.349Z,52.13
2019-03-22T09:05:02.958Z,55.10
2019-03-22T09:07:08.511Z,73.35
2019-03-22T09:09:15.086Z,63.95
2019-03-22T09:11:20.642Z,60.98
2019-03-22T09:13:26.229Z,63.85
2019-03-22T09:15:41.173Z,65.87
2019-03-22T09:17:38.991Z,63.15
2019-03-22T09:19:44.501Z,62.40
2019-03-22T09:21:50.059Z,55.90
2019-03-22T09:23:55.587Z,67.27
2019-03-22T09:26:01.178Z,71.87
2019-03-22T09:28:06.782Z,62.75
2019-03-22T09:30:14.121Z,77.42
2019-03-22T09:32:19.615Z,81.92
2019-03-22T09:34:33.556Z,78.37
2019-03-22T09:36:32.346Z,59.35
2019-03-22T09:38:37.827Z,56.80
2019-03-22T09:40:43.379Z,56.48
2019-03-22T09:42:49.201Z,79.80
2019-03-22T09:44:54.795Z,78.10
2019-03-22T09:47:00.321Z,74.00
2019-03-22T09:49:05.853Z,68.80
2019-03-22T09:51:11.388Z,53.13
2019-03-22T09:53:16.920Z,71.50
2019-03-22T09:55:22.449Z,54.13
2019-03-22T09:57:27.994Z,63.38
2019-03-22T09:59:33.534Z,44.50
2019-03-22T10:01:39.073Z,50.20
2019-03-22T10:03:44.956Z,46.83
2019-03-22T10:05:50.493Z,51.90
2019-03-22T10:07:56.049Z,47.45
2019-03-22T10:10:01.565Z,50.70
2019-03-22T10:12:07.240Z,50.10
2019-03-22T10:14:12.705Z,45.50
2019-03-22T10:16:18.245Z,41.88
2019-03-22T10:18:23.808Z,37.73
2019-03-22T10:20:29.323Z,40.95
2019-03-22T10:22:34.908Z,40.58
2019-03-22T10:24:40.614Z,46.90
2019-03-22T10:26:46.109Z,50.28
2019-03-22T10:28:51.637Z,44.63
2019-03-22T10:30:57.244Z,47.95
2019-03-22T10:33:02.710Z,49.80
2019-03-22T10:35:08.518Z,50.63
2019-03-22T10:37:14.063Z,58.17
2019-03-22T10:39:19.622Z,48.95
2019-03-22T10:41:25.140Z,60.52
2019-03-22T10:43:32.588Z,53.58
2019-03-22T10:45:38.117Z,48.35
2019-03-22T10:47:43.657Z,43.25
2019-03-22T10:49:49.232Z,44.53
2019-03-22T10:51:57.248Z,42.70
2019-03-22T10:54:01.968Z,39.60
2019-03-22T10:56:07.481Z,43.73
2019-03-22T10:58:20.795Z,36.65
2019-03-22T11:00:20.530Z,33.33
2019-03-22T11:02:45.591Z,34.13
2019-03-22T11:04:51.237Z,31.62
2019-03-22T11:06:56.737Z,32.08
2019-03-22T11:09:02.268Z,32.63
2019-03-22T11:11:09.577Z,33.88
2019-03-22T11:13:15.104Z,29.45
2019-03-22T11:15:20.727Z,33.00
2019-03-22T11:17:26.268Z,40.30
2019-03-22T11:19:31.793Z,41.73
2019-03-22T11:21:37.330Z,42.88
2019-03-22T11:23:42.928Z,41.83
2019-03-22T11:25:48.461Z,43.65
2019-03-22T11:27:53.984Z,42.83
2019-03-22T11:29:59.535Z,46.92
2019-03-22T11:32:12.295Z,44.50
2019-03-22T11:34:12.453Z,43.65
2019-03-22T11:36:30.369Z,43.42
2019-03-22T11:38:35.891Z,42.03
2019-03-22T11:40:41.433Z,42.10
2019-03-22T11:42:47.143Z,41.37
2019-03-22T11:44:52.674Z,38.10
2019-03-22T11:46:58.273Z,43.15
2019-03-22T11:49:03.816Z,49.83
2019-03-22T11:51:09.409Z,42.62
2019-03-22T11:53:14.940Z,46.90
2019-03-22T11:55:20.474Z,46.10
2019-03-22T11:57:26.006Z,49.33
2019-03-22T11:59:31.555Z,83.12
2019-03-22T12:01:37.176Z,55.15
2019-03-22T12:03:42.711Z,61.40
2019-03-22T12:05:48.237Z,42.33
2019-03-22T12:07:53.800Z,46.23
2019-03-22T12:09:59.332Z,41.20
2019-03-22T12:12:05.001Z,52.20
2019-03-22T12:14:10.569Z,48.42
2019-03-22T12:16:16.104Z,48.60
2019-03-22T12:18:21.633Z,40.38
2019-03-22T12:20:27.198Z,41.23
2019-03-22T12:22:32.729Z,139.50
2019-03-22T12:24:38.266Z,48.87
2019-03-22T12:26:43.796Z,53.87
2019-03-22T12:28:49.329Z,41.98
2019-03-22T12:30:54.857Z,50.98
2019-03-22T12:33:00.405Z,53.00
2019-03-22T12:35:07.982Z,39.90
2019-03-22T12:37:13.509Z,41.02
2019-03-22T12:39:19.039Z,37.42
2019-03-22T12:41:24.569Z,32.85
2019-03-22T12:43:30.097Z,67.32
2019-03-22T12:45:35.802Z,49.95
2019-03-22T12:47:41.309Z,44.80
2019-03-22T12:49:46.837Z,44.13
2019-03-22T12:51:52.373Z,36.85
2019-03-22T12:53:57.897Z,45.40
2019-03-22T12:56:04.363Z,33.10
2019-03-22T12:58:09.922Z,31.17
2019-03-22T13:00:18.182Z,42.27
2019-03-22T13:02:23.781Z,43.50
2019-03-22T13:04:29.407Z,37.03
2019-03-22T13:06:34.933Z,34.67
2019-03-22T13:08:43.545Z,36.53
2019-03-22T13:10:49.144Z,39.78
2019-03-22T13:12:54.751Z,41.50
2019-03-22T13:15:00.327Z,36.58
2019-03-22T13:17:05.803Z,38.30
2019-03-22T13:19:11.348Z,43.45
2019-03-22T13:21:16.870Z,45.45
2019-03-22T13:23:23.473Z,45.55
2019-03-22T13:25:29.000Z,44.93
2019-03-22T13:27:34.523Z,45.17
2019-03-22T13:29:40.093Z,55.15
2019-03-22T13:31:46.769Z,70.87
2019-03-22T13:33:52.350Z,88.82
2019-03-22T13:35:57.899Z,94.35
2019-03-22T13:38:03.674Z,48.60
2019-03-22T13:40:09.458Z,47.03
2019-03-22T13:42:14.994Z,45.95
2019-03-22T13:44:20.511Z,50.33
2019-03-22T13:46:26.044Z,50.90
2019-03-22T13:48:31.581Z,58.95
2019-03-22T13:50:37.121Z,50.63
2019-03-22T13:52:42.652Z,41.73
2019-03-22T13:54:48.222Z,43.58
2019-03-22T13:56:53.747Z,42.62
2019-03-22T13:58:59.289Z,41.65
2019-03-22T14:01:04.931Z,55.23
2019-03-22T14:03:10.448Z,47.27
2019-03-22T14:05:16.068Z,43.45
2019-03-22T14:07:21.689Z,81.55
2019-03-22T14:09:27.320Z,61.68
2019-03-22T14:11:32.854Z,47.80
2019-03-22T14:13:39.808Z,46.55
2019-03-22T14:15:45.444Z,56.10
2019-03-22T14:17:51.038Z,53.10
2019-03-22T14:19:58.124Z,54.95
2019-03-22T14:22:04.428Z,56.65
2019-03-22T14:24:09.941Z,55.98
2019-03-22T14:26:15.472Z,74.47
2019-03-22T14:28:21.005Z,114.65
2019-03-22T14:30:26.540Z,56.40
2019-03-22T14:32:32.076Z,81.25
2019-03-22T14:34:37.617Z,275.15
2019-03-22T14:36:43.163Z,182.65
2019-03-22T14:38:48.700Z,70.40
2019-03-22T14:40:54.244Z,45.90
2019-03-22T14:42:59.784Z,79.77
2019-03-22T14:45:08.411Z,51.23
2019-03-22T14:47:13.940Z,166.92
2019-03-22T14:49:19.481Z,80.32
2019-03-22T14:51:25.028Z,58.23
2019-03-22T14:53:30.562Z,66.17
2019-03-22T14:55:36.188Z,63.78
2019-03-22T14:57:49.002Z,153.47
2019-03-22T14:59:58.356Z,57.20
2019-03-22T15:01:56.075Z,50.60
2019-03-22T15:04:01.613Z,49.58
2019-03-22T15:06:07.218Z,54.30
2019-03-22T15:08:12.745Z,49.35
2019-03-22T15:10:18.355Z,46.55
2019-03-22T15:12:23.884Z,50.03
2019-03-22T15:14:34.079Z,55.58
2019-03-22T15:16:41.261Z,61.77
2019-03-22T15:19:04.754Z,50.00
2019-03-22T15:21:14.598Z,56.35
2019-03-22T15:23:31.669Z,45.38
2019-03-22T15:25:56.869Z,50.12
2019-03-22T15:28:04.029Z,73.83
2019-03-22T15:30:28.749Z,76.75
2019-03-22T15:35:07.235Z,98.05
2019-03-22T15:37:31.010Z,99.80
2019-03-22T15:39:38.333Z,222.03
2019-03-22T15:41:43.936Z,106.47
2019-03-22T15:43:49.552Z,226.47
2019-03-22T15:45:55.125Z,106.47
2019-03-22T15:48:00.730Z,119.93
2019-03-22T15:50:09.519Z,58.33
2019-03-22T15:52:15.046Z,59.55
2019-03-22T15:54:20.590Z,161.73
2019-03-22T15:56:26.141Z,303.52
2019-03-22T15:58:31.696Z,471.95
2019-03-22T16:00:37.224Z,362.63
2019-03-22T16:02:43.064Z,414.48
2019-03-22T16:04:48.602Z,152.68
2019-03-22T16:06:54.140Z,93.82
2019-03-22T16:08:59.690Z,101.85
2019-03-22T16:11:05.289Z,101.27
2019-03-22T16:13:10.834Z,111.68
2019-03-22T16:15:16.580Z,75.28
2019-03-22T16:17:22.055Z,55.55
2019-03-22T16:19:27.593Z,58.00
2019-03-22T16:21:33.134Z,58.87
2019-03-22T16:23:38.665Z,52.27
2019-03-22T16:25:44.188Z,58.20
2019-03-22T16:27:50.996Z,49.95
2019-03-22T16:29:56.523Z,53.52
2019-03-22T16:32:02.051Z,58.08
2019-03-22T16:34:07.581Z,84.75
2019-03-22T16:36:13.106Z,63.90
2019-03-22T16:38:18.623Z,63.23
2019-03-22T16:40:24.673Z,78.42
2019-03-22T16:42:30.364Z,78.52
2019-03-22T16:44:35.896Z,74.22
2019-03-22T16:46:41.473Z,63.40
2019-03-22T16:48:48.072Z,73.83
2019-03-22T16:50:53.611Z,69.47
2019-03-22T16:52:59.230Z,65.78
2019-03-22T16:55:06.506Z,65.90
2019-03-22T16:57:12.044Z,66.87
2019-03-22T16:59:17.586Z,64.87
2019-03-22T17:01:23.123Z,69.70
2019-03-22T17:03:28.652Z,68.05
2019-03-22T17:05:34.210Z,68.55
2019-03-22T17:07:39.737Z,66.87
2019-03-22T17:09:45.277Z,63.45
2019-03-22T17:11:50.821Z,66.67
2019-03-22T17:13:56.336Z,62.03
2019-03-22T17:16:02.080Z,67.40
2019-03-22T17:18:07.736Z,63.55
2019-03-22T17:20:13.533Z,70.45
2019-03-22T17:22:19.069Z,67.85
2019-03-22T17:24:24.608Z,71.25
2019-03-22T17:26:30.218Z,68.45
2019-03-22T17:28:35.744Z,60.15
2019-03-22T17:30:41.284Z,58.70
2019-03-22T17:32:46.814Z,54.88
2019-03-22T17:34:52.401Z,54.80
2019-03-22T17:36:57.963Z,62.08
2019-03-22T17:39:05.024Z,62.88
2019-03-22T17:41:10.625Z,61.53
2019-03-22T17:43:16.238Z,63.68
2019-03-22T17:45:21.902Z,61.18
2019-03-22T17:47:27.442Z,60.38
2019-03-22T17:49:33.077Z,63.92
2019-03-22T17:51:39.286Z,61.53
2019-03-22T17:53:44.821Z,62.95
2019-03-22T17:55:50.372Z,60.73
2019-03-22T17:57:55.898Z,63.90
2019-03-22T18:00:01.430Z,61.77
2019-03-22T18:02:07.196Z,62.55
2019-03-22T18:04:12.719Z,61.77
2019-03-22T18:06:18.256Z,62.27
2019-03-22T18:08:23.801Z,61.65
2019-03-22T18:10:29.426Z,68.05
2019-03-22T18:12:34.956Z,67.58
2019-03-22T18:14:40.483Z,66.90
2019-03-22T18:16:46.034Z,77.35
2019-03-22T18:18:51.637Z,96.45
2019-03-22T18:20:57.176Z,155.85
2019-03-22T18:23:02.752Z,181.63
2019-03-22T18:25:10.431Z,150.57
2019-03-22T18:27:16.034Z,199.15
2019-03-22T18:29:21.605Z,353.45
2019-03-22T18:31:27.140Z,356.70
2019-03-22T18:33:32.687Z,195.05
2019-03-22T18:35:38.251Z,129.15
2019-03-22T18:37:43.791Z,117.17
2019-03-22T18:39:49.628Z,131.65
2019-03-22T18:41:55.181Z,87.35
2019-03-22T18:44:00.787Z,88.33
2019-03-22T18:46:06.338Z,83.92
2019-03-22T18:48:11.921Z,81.63
2019-03-22T18:50:17.532Z,87.55
2019-03-22T18:52:23.089Z,88.92
2019-03-22T18:54:28.648Z,90.12
2019-03-22T18:56:34.198Z,91.28
2019-03-22T18:58:39.737Z,92.95
2019-03-22T19:00:45.287Z,95.85
2019-03-22T19:02:50.842Z,94.17
2019-03-22T19:04:56.386Z,91.47
2019-03-22T19:07:01.956Z,88.87
2019-03-22T19:09:08.615Z,85.57
2019-03-22T19:11:14.342Z,89.75
2019-03-22T19:13:19.872Z,86.12
2019-03-22T19:15:25.410Z,88.87
2019-03-22T19:17:30.941Z,86.08
2019-03-22T19:19:36.512Z,89.37
2019-03-22T19:21:42.119Z,88.87
2019-03-22T19:23:47.653Z,92.97
2019-03-22T19:26:06.088Z,95.55
2019-03-22T19:28:11.640Z,93.42
2019-03-22T19:30:18.334Z,91.12
2019-03-22T19:32:23.909Z,92.60
2019-03-22T19:34:29.441Z,95.50
2019-03-22T19:36:34.973Z,111.45
2019-03-22T19:38:40.549Z,110.00
2019-03-22T19:40:46.102Z,98.92
2019-03-22T19:42:51.652Z,101.38
2019-03-22T19:44:57.202Z,105.63
2019-03-22T19:47:02.748Z,100.53
2019-03-22T19:49:08.303Z,104.70
2019-03-22T19:51:13.874Z,102.42
2019-03-22T19:53:19.432Z,108.50
2019-03-22T19:55:24.979Z,119.33
2019-03-22T19:57:30.600Z,119.05
2019-03-22T19:59:36.213Z,124.05
2019-03-22T20:01:42.839Z,124.27
2019-03-22T20:03:48.384Z,125.33
2019-03-22T20:05:53.970Z,122.87
2019-03-22T20:07:59.803Z,127.45
2019-03-22T20:10:08.729Z,136.68
2019-03-22T20:12:14.309Z,162.35
2019-03-22T20:14:19.841Z,150.45
2019-03-22T20:16:25.383Z,144.37
2019-03-22T20:18:30.928Z,145.22
2019-03-22T20:20:36.465Z,150.45
2019-03-22T20:22:42.011Z,144.25
2019-03-22T20:24:47.545Z,150.18
2019-03-22T20:26:53.092Z,115.00
2019-03-22T20:28:58.689Z,112.88
2019-03-22T20:31:04.310Z,114.67
2019-03-22T20:33:09.984Z,122.50
2019-03-22T20:35:17.037Z,117.42
2019-03-22T20:37:22.820Z,110.20
2019-03-22T20:39:28.358Z,94.35
2019-03-22T20:41:33.903Z,96.75
2019-03-22T20:43:39.454Z,217.53
2019-03-22T20:45:44.995Z,191.73
2019-03-22T20:47:50.563Z,182.55
2019-03-22T20:49:56.103Z,189.30
2019-03-22T20:52:01.648Z,182.97
2019-03-22T20:54:07.298Z,144.28
2019-03-22T20:56:12.857Z,133.05
2019-03-22T20:58:18.410Z,124.12
2019-03-22T21:00:23.958Z,126.90
2019-03-22T21:02:29.498Z,135.10
2019-03-22T21:04:35.096Z,148.35
2019-03-22T21:06:40.663Z,127.97
2019-03-22T21:08:46.211Z,114.52
2019-03-22T21:10:51.757Z,108.55
2019-03-22T21:12:57.486Z,106.10
2019-03-22T21:15:03.917Z,106.87
2019-03-22T21:17:09.603Z,107.60
2019-03-22T21:19:15.487Z,107.87
2019-03-22T21:21:21.042Z,100.30
2019-03-22T21:23:35.892Z,108.87
2019-03-22T21:25:33.749Z,110.55
2019-03-22T21:27:39.299Z,109.05
2019-03-22T21:29:44.827Z,110.65
2019-03-22T21:31:50.372Z,116.77
2019-03-22T21:33:56.010Z,120.95
2019-03-22T21:36:01.538Z,119.30
2019-03-22T21:38:11.088Z,118.53
2019-03-22T21:40:14.387Z,116.53
2019-03-22T21:42:19.917Z,124.50
2019-03-22T21:44:25.490Z,137.85
2019-03-22T21:46:31.019Z,137.77
2019-03-22T21:48:36.572Z,135.70
2019-03-22T21:50:42.105Z,144.90
2019-03-22T21:52:47.658Z,155.37
2019-03-22T21:54:53.203Z,160.72
2019-03-22T21:56:58.745Z,167.03
2019-03-22T21:59:04.382Z,176.05
2019-03-22T22:01:09.928Z,180.85
2019-03-22T22:03:15.468Z,181.45
2019-03-22T22:05:21.032Z,188.35
2019-03-22T22:07:26.572Z,183.03
2019-03-22T22:09:32.117Z,176.18
2019-03-22T22:11:37.647Z,175.35
2019-03-22T22:13:43.225Z,183.20
2019-03-22T22:15:48.765Z,183.62
2019-03-22T22:17:54.308Z,174.30
2019-03-22T22:19:59.863Z,163.65
2019-03-22T22:22:05.402Z,166.32
2019-03-22T22:24:11.035Z,169.00
2019-03-22T22:26:16.565Z,178.68
2019-03-22T22:28:22.118Z,183.87
2019-03-22T22:30:27.676Z,186.52
2019-03-22T22:32:33.221Z,190.38
2019-03-22T22:34:39.648Z,178.72
2019-03-22T22:36:48.278Z,185.05
2019-03-22T22:38:53.808Z,180.15
2019-03-22T22:40:59.362Z,172.82
2019-03-22T22:43:06.044Z,176.97
2019-03-22T22:45:12.117Z,180.50
2019-03-22T22:47:17.668Z,176.80
2019-03-22T22:49:23.209Z,164.50
2019-03-22T22:51:28.754Z,160.65
2019-03-22T22:53:34.343Z,164.05
2019-03-22T22:55:39.890Z,152.62
2019-03-22T22:57:45.427Z,139.35
2019-03-22T22:59:50.981Z,144.80
2019-03-22T23:01:56.618Z,135.60
2019-03-22T23:04:02.224Z,134.40
2019-03-22T23:06:09.711Z,128.85
2019-03-22T23:08:15.013Z,131.00
2019-03-22T23:10:20.539Z,120.53
2019-03-22T23:12:44.395Z,115.62
2019-03-22T23:14:49.925Z,120.37
2019-03-22T23:16:55.459Z,115.67
2019-03-22T23:19:01.107Z,124.02
2019-03-22T23:21:06.642Z,123.65
2019-03-22T23:23:12.185Z,122.82
2019-03-22T23:25:17.750Z,121.00
2019-03-22T23:27:23.286Z,117.10
2019-03-22T23:29:28.829Z,121.28
2019-03-22T23:31:52.594Z,137.72
2019-03-22T23:33:58.202Z,138.15
2019-03-22T23:36:03.916Z,134.50
2019-03-22T23:38:09.457Z,138.03
2019-03-22T23:40:15.217Z,126.58
2019-03-22T23:42:20.853Z,118.93
2019-03-22T23:44:39.680Z,128.75
2019-03-22T23:46:45.247Z,147.80
2019-03-22T23:48:50.797Z,132.37
2019-03-22T23:50:56.362Z,121.53
2019-03-22T23:53:01.886Z,120.00
2019-03-22T23:55:07.571Z,124.35
2019-03-22T23:57:13.114Z,133.70
2019-03-22T23:59:18.657Z,126.25
